BAW87D EDDP-LKPR
Flight info
| Callsign | BAW87D |
|---|---|
| Flight time | 0h 37m |
| Altitude | 23000 |
| Route | DRN2E DRN T620 LALUK DCT GOLOP GOLOP4T |
| Aircraft | A319/M-SDE3FGIJ1KRWXY/LB1 |
Departure
| Time | 2026-05-07 15:27 |
|---|---|
| Airport | Leipzig/Halle Airport (EDDP) |
Arrival
| Time | 2026-05-07 16:04 |
|---|---|
| Airport | Václav Havel Airport Prague (LKPR) |
| Time | Latitude | Longitude | Altitude | Speed | Heading |
|---|---|---|---|---|---|
| 2026-05-07 14:53 | 51.41950 | 12.21674 | 437 ft | 0 kts | 15° |
| 2026-05-07 15:15 | 51.41935 | 12.21667 | 424 ft | 4 kts | 10° |
| 2026-05-07 15:15 | 51.41908 | 12.21663 | 428 ft | 4 kts | 358° |
| 2026-05-07 15:15 | 51.41882 | 12.21668 | 438 ft | 4 kts | 336° |
| 2026-05-07 15:16 | 51.41864 | 12.21691 | 428 ft | 2 kts | 285° |
| 2026-05-07 15:16 | 51.41863 | 12.21699 | 433 ft | 0 kts | 285° |
| 2026-05-07 15:20 | 51.41867 | 12.21676 | 430 ft | 4 kts | 286° |
| 2026-05-07 15:20 | 51.41880 | 12.21605 | 439 ft | 9 kts | 287° |
| 2026-05-07 15:20 | 51.41901 | 12.21470 | 431 ft | 16 kts | 283° |
| 2026-05-07 15:21 | 51.41934 | 12.21278 | 432 ft | 20 kts | 284° |
| 2026-05-07 15:21 | 51.41974 | 12.21052 | 428 ft | 22 kts | 287° |
| 2026-05-07 15:21 | 51.42033 | 12.20915 | 421 ft | 14 kts | 17° |
| 2026-05-07 15:21 | 51.42124 | 12.20954 | 429 ft | 13 kts | 15° |
| 2026-05-07 15:22 | 51.42202 | 12.20989 | 432 ft | 10 kts | 15° |
| 2026-05-07 15:22 | 51.42271 | 12.21021 | 425 ft | 11 kts | 16° |
| 2026-05-07 15:22 | 51.42369 | 12.21062 | 439 ft | 18 kts | 13° |
| 2026-05-07 15:22 | 51.42514 | 12.21127 | 442 ft | 27 kts | 12° |
| 2026-05-07 15:23 | 51.42684 | 12.21199 | 436 ft | 21 kts | 15° |
| 2026-05-07 15:23 | 51.42842 | 12.21264 | 433 ft | 25 kts | 14° |
| 2026-05-07 15:23 | 51.42946 | 12.21373 | 427 ft | 9 kts | 48° |
| 2026-05-07 15:23 | 51.42956 | 12.21389 | 432 ft | 0 kts | 45° |
| 2026-05-07 15:25 | 51.42966 | 12.21406 | 428 ft | 4 kts | 45° |
| 2026-05-07 15:25 | 51.42999 | 12.21459 | 434 ft | 9 kts | 45° |
| 2026-05-07 15:26 | 51.43059 | 12.21554 | 425 ft | 16 kts | 44° |
| 2026-05-07 15:26 | 51.43128 | 12.21715 | 438 ft | 16 kts | 76° |
| 2026-05-07 15:26 | 51.43142 | 12.21922 | 436 ft | 30 kts | 86° |
| 2026-05-07 15:26 | 51.43178 | 12.22645 | 433 ft | 98 kts | 85° |
| 2026-05-07 15:27 | 51.43244 | 12.24043 | 450 ft | 153 kts | 84° |
| 2026-05-07 15:27 | 51.43330 | 12.25728 | 1006 ft | 151 kts | 83° |
| 2026-05-07 15:27 | 51.43401 | 12.27427 | 1615 ft | 155 kts | 83° |
| 2026-05-07 15:27 | 51.43499 | 12.29222 | 2031 ft | 172 kts | 83° |
| 2026-05-07 15:28 | 51.43598 | 12.31259 | 2362 ft | 195 kts | 84° |
| 2026-05-07 15:28 | 51.43700 | 12.33514 | 2750 ft | 216 kts | 84° |
| 2026-05-07 15:28 | 51.43814 | 12.36060 | 3202 ft | 241 kts | 84° |
| 2026-05-07 15:28 | 51.43936 | 12.38876 | 3967 ft | 255 kts | 85° |
| 2026-05-07 15:29 | 51.44062 | 12.41753 | 4955 ft | 262 kts | 85° |
| 2026-05-07 15:29 | 51.44190 | 12.44654 | 5932 ft | 267 kts | 85° |
| 2026-05-07 15:29 | 51.44321 | 12.47664 | 6698 ft | 273 kts | 85° |
| 2026-05-07 15:29 | 51.44301 | 12.50716 | 6952 ft | 275 kts | 97° |
| 2026-05-07 15:30 | 51.43826 | 12.53684 | 7047 ft | 276 kts | 111° |
| 2026-05-07 15:30 | 51.42904 | 12.56383 | 7340 ft | 280 kts | 124° |
| 2026-05-07 15:30 | 51.41835 | 12.59009 | 8351 ft | 282 kts | 123° |
| 2026-05-07 15:30 | 51.40771 | 12.61696 | 9327 ft | 288 kts | 122° |
| 2026-05-07 15:31 | 51.39696 | 12.64438 | 10232 ft | 297 kts | 123° |
| 2026-05-07 15:31 | 51.38551 | 12.67351 | 10565 ft | 321 kts | 123° |
| 2026-05-07 15:31 | 51.37323 | 12.70463 | 10982 ft | 337 kts | 123° |
| 2026-05-07 15:31 | 51.36060 | 12.73663 | 11711 ft | 343 kts | 123° |
| 2026-05-07 15:32 | 51.34775 | 12.76907 | 12486 ft | 347 kts | 124° |
| 2026-05-07 15:32 | 51.33492 | 12.80143 | 13240 ft | 350 kts | 124° |
| 2026-05-07 15:32 | 51.32178 | 12.83442 | 13976 ft | 354 kts | 124° |
| 2026-05-07 15:32 | 51.30843 | 12.86789 | 14646 ft | 358 kts | 124° |
| 2026-05-07 15:33 | 51.29504 | 12.90143 | 15341 ft | 361 kts | 124° |
| 2026-05-07 15:33 | 51.28142 | 12.93546 | 16042 ft | 364 kts | 124° |
| 2026-05-07 15:33 | 51.26767 | 12.96976 | 16748 ft | 368 kts | 124° |
| 2026-05-07 15:33 | 51.25384 | 13.00425 | 17428 ft | 371 kts | 124° |
| 2026-05-07 15:34 | 51.23990 | 13.03900 | 18095 ft | 374 kts | 124° |
| 2026-05-07 15:34 | 51.22581 | 13.07412 | 18712 ft | 377 kts | 124° |
| 2026-05-07 15:34 | 51.21154 | 13.10957 | 19302 ft | 380 kts | 124° |
| 2026-05-07 15:34 | 51.19716 | 13.14519 | 19895 ft | 383 kts | 124° |
| 2026-05-07 15:35 | 51.18266 | 13.18103 | 20492 ft | 386 kts | 124° |
| 2026-05-07 15:35 | 51.16806 | 13.21710 | 21092 ft | 389 kts | 124° |
| 2026-05-07 15:35 | 51.15339 | 13.25358 | 21674 ft | 392 kts | 123° |
| 2026-05-07 15:35 | 51.13891 | 13.28996 | 22248 ft | 395 kts | 123° |
| 2026-05-07 15:36 | 51.12417 | 13.32713 | 22798 ft | 398 kts | 123° |
| 2026-05-07 15:36 | 51.10920 | 13.36496 | 23003 ft | 399 kts | 123° |
| 2026-05-07 15:36 | 51.09473 | 13.40148 | 23034 ft | 393 kts | 123° |
| 2026-05-07 15:36 | 51.08013 | 13.43817 | 23038 ft | 391 kts | 123° |
| 2026-05-07 15:37 | 51.06555 | 13.47455 | 23025 ft | 390 kts | 123° |
| 2026-05-07 15:37 | 51.05094 | 13.51088 | 23034 ft | 390 kts | 123° |
| 2026-05-07 15:37 | 51.03639 | 13.54710 | 23025 ft | 390 kts | 123° |
| 2026-05-07 15:37 | 51.02012 | 13.58140 | 23039 ft | 388 kts | 133° |
| 2026-05-07 15:38 | 51.00028 | 13.61034 | 23034 ft | 387 kts | 144° |
| 2026-05-07 15:38 | 50.97768 | 13.63313 | 23027 ft | 385 kts | 152° |
| 2026-05-07 15:38 | 50.95424 | 13.65403 | 23028 ft | 385 kts | 151° |
| 2026-05-07 15:38 | 50.93091 | 13.67495 | 23032 ft | 385 kts | 151° |
| 2026-05-07 15:39 | 50.90787 | 13.69641 | 23027 ft | 385 kts | 147° |
| 2026-05-07 15:39 | 50.88710 | 13.72327 | 23042 ft | 386 kts | 136° |
| 2026-05-07 15:39 | 50.86949 | 13.75534 | 23041 ft | 386 kts | 130° |
| 2026-05-07 15:39 | 50.85253 | 13.78833 | 23040 ft | 386 kts | 130° |
| 2026-05-07 15:40 | 50.84124 | 13.81006 | 23040 ft | 386 kts | 130° |
| 2026-05-07 15:40 | 50.82417 | 13.84270 | 23035 ft | 385 kts | 131° |
| 2026-05-07 15:40 | 50.80234 | 13.88700 | 23033 ft | 386 kts | 124° |
| 2026-05-07 15:40 | 50.78900 | 13.92376 | 23027 ft | 386 kts | 120° |
| 2026-05-07 15:41 | 50.77604 | 13.96068 | 23027 ft | 386 kts | 120° |
| 2026-05-07 15:41 | 50.76743 | 13.98523 | 23016 ft | 386 kts | 120° |
| 2026-05-07 15:41 | 50.75438 | 14.02239 | 23024 ft | 385 kts | 121° |
| 2026-05-07 15:41 | 50.74114 | 14.05988 | 23022 ft | 385 kts | 121° |
| 2026-05-07 15:42 | 50.72816 | 14.09663 | 23018 ft | 384 kts | 121° |
| 2026-05-07 15:42 | 50.71509 | 14.13353 | 23022 ft | 384 kts | 121° |
| 2026-05-07 15:42 | 50.70218 | 14.16986 | 23003 ft | 384 kts | 121° |
| 2026-05-07 15:42 | 50.68914 | 14.20645 | 23016 ft | 384 kts | 121° |
| 2026-05-07 15:43 | 50.67603 | 14.24321 | 23010 ft | 384 kts | 121° |
| 2026-05-07 15:43 | 50.66293 | 14.27995 | 22992 ft | 384 kts | 121° |
| 2026-05-07 15:43 | 50.64984 | 14.31672 | 22996 ft | 384 kts | 122° |
| 2026-05-07 15:43 | 50.63683 | 14.35322 | 22999 ft | 384 kts | 122° |
| 2026-05-07 15:44 | 50.62317 | 14.38922 | 22983 ft | 382 kts | 129° |
| 2026-05-07 15:44 | 50.60434 | 14.41833 | 22988 ft | 377 kts | 147° |
| 2026-05-07 15:44 | 50.58094 | 14.43606 | 22980 ft | 373 kts | 165° |
| 2026-05-07 15:44 | 50.55542 | 14.44125 | 22981 ft | 371 kts | 183° |
| 2026-05-07 15:45 | 50.53042 | 14.43399 | 22975 ft | 375 kts | 199° |
| 2026-05-07 15:45 | 50.50696 | 14.41449 | 22996 ft | 380 kts | 212° |
| 2026-05-07 15:45 | 50.48484 | 14.39160 | 22980 ft | 381 kts | 212° |
| 2026-05-07 15:45 | 50.46287 | 14.36931 | 22979 ft | 381 kts | 209° |
| 2026-05-07 15:46 | 50.41273 | 14.34473 | 22980 ft | 380 kts | 184° |
| 2026-05-07 15:46 | 50.38639 | 14.34605 | 22975 ft | 377 kts | 174° |
| 2026-05-07 15:46 | 50.36062 | 14.35129 | 22679 ft | 370 kts | 174° |
| 2026-05-07 15:47 | 50.33529 | 14.35641 | 22223 ft | 366 kts | 174° |
| 2026-05-07 15:47 | 50.31016 | 14.36146 | 21716 ft | 363 kts | 174° |
| 2026-05-07 15:47 | 50.28518 | 14.36647 | 21205 ft | 360 kts | 174° |
| 2026-05-07 15:47 | 50.26042 | 14.37143 | 20691 ft | 358 kts | 174° |
| 2026-05-07 15:48 | 50.23584 | 14.37635 | 20178 ft | 355 kts | 174° |
| 2026-05-07 15:48 | 50.21146 | 14.38118 | 19673 ft | 352 kts | 174° |
| 2026-05-07 15:48 | 50.18717 | 14.38599 | 19180 ft | 350 kts | 175° |
| 2026-05-07 15:48 | 50.16337 | 14.39368 | 18705 ft | 350 kts | 164° |
| 2026-05-07 15:49 | 50.14132 | 14.40977 | 18226 ft | 351 kts | 150° |
| 2026-05-07 15:49 | 50.12217 | 14.43356 | 17656 ft | 353 kts | 137° |
| 2026-05-07 15:49 | 50.10663 | 14.46320 | 17099 ft | 354 kts | 130° |
| 2026-05-07 15:49 | 50.09198 | 14.49359 | 16444 ft | 350 kts | 130° |
| 2026-05-07 15:50 | 50.07728 | 14.52386 | 15754 ft | 347 kts | 130° |
| 2026-05-07 15:50 | 50.06275 | 14.55360 | 15091 ft | 344 kts | 131° |
| 2026-05-07 15:50 | 50.04830 | 14.58313 | 14452 ft | 341 kts | 130° |
| 2026-05-07 15:50 | 50.03403 | 14.61231 | 13845 ft | 338 kts | 131° |
| 2026-05-07 15:51 | 50.02000 | 14.64095 | 13176 ft | 335 kts | 131° |
| 2026-05-07 15:51 | 50.00587 | 14.66978 | 12810 ft | 324 kts | 131° |
| 2026-05-07 15:51 | 49.99279 | 14.69663 | 12667 ft | 307 kts | 131° |
| 2026-05-07 15:51 | 49.98003 | 14.72274 | 12123 ft | 304 kts | 131° |
| 2026-05-07 15:52 | 49.96712 | 14.74866 | 11774 ft | 297 kts | 131° |
| 2026-05-07 15:52 | 49.95477 | 14.77344 | 11549 ft | 287 kts | 131° |
| 2026-05-07 15:52 | 49.94259 | 14.79789 | 11176 ft | 283 kts | 131° |
| 2026-05-07 15:52 | 49.93060 | 14.82198 | 10762 ft | 281 kts | 131° |
| 2026-05-07 15:53 | 49.91865 | 14.84590 | 10343 ft | 280 kts | 131° |
| 2026-05-07 15:53 | 49.90675 | 14.86956 | 9933 ft | 278 kts | 131° |
| 2026-05-07 15:53 | 49.89477 | 14.89311 | 9483 ft | 276 kts | 133° |
| 2026-05-07 15:53 | 49.88020 | 14.91171 | 9128 ft | 269 kts | 156° |
| 2026-05-07 15:54 | 49.86262 | 14.91999 | 8795 ft | 262 kts | 178° |
| 2026-05-07 15:54 | 49.84484 | 14.91697 | 8449 ft | 256 kts | 201° |
| 2026-05-07 15:54 | 49.82950 | 14.90376 | 8107 ft | 253 kts | 222° |
| 2026-05-07 15:54 | 49.81848 | 14.88295 | 7780 ft | 251 kts | 242° |
| 2026-05-07 15:55 | 49.81330 | 14.85729 | 7470 ft | 251 kts | 263° |
| 2026-05-07 15:55 | 49.81467 | 14.83046 | 7151 ft | 253 kts | 284° |
| 2026-05-07 15:55 | 49.82246 | 14.80598 | 6836 ft | 256 kts | 305° |
| 2026-05-07 15:55 | 49.83444 | 14.78551 | 6515 ft | 257 kts | 310° |
| 2026-05-07 15:56 | 49.84646 | 14.76561 | 6222 ft | 256 kts | 310° |
| 2026-05-07 15:56 | 49.85869 | 14.74559 | 5906 ft | 255 kts | 313° |
| 2026-05-07 15:56 | 49.87186 | 14.72742 | 5595 ft | 253 kts | 311° |
| 2026-05-07 15:56 | 49.88325 | 14.70683 | 5305 ft | 249 kts | 304° |
| 2026-05-07 15:57 | 49.89363 | 14.68547 | 5020 ft | 247 kts | 304° |
| 2026-05-07 15:57 | 49.90396 | 14.66421 | 4756 ft | 244 kts | 304° |
| 2026-05-07 15:57 | 49.91405 | 14.64365 | 4616 ft | 236 kts | 304° |
| 2026-05-07 15:57 | 49.92382 | 14.62374 | 4486 ft | 227 kts | 304° |
| 2026-05-07 15:58 | 49.93318 | 14.60466 | 4358 ft | 218 kts | 304° |
| 2026-05-07 15:58 | 49.94219 | 14.58627 | 4225 ft | 209 kts | 304° |
| 2026-05-07 15:58 | 49.95074 | 14.56880 | 4119 ft | 198 kts | 304° |
| 2026-05-07 15:58 | 49.95885 | 14.55224 | 4029 ft | 187 kts | 304° |
| 2026-05-07 15:59 | 49.96655 | 14.53648 | 4010 ft | 181 kts | 304° |
| 2026-05-07 15:59 | 49.97413 | 14.52094 | 4010 ft | 180 kts | 304° |
| 2026-05-07 15:59 | 49.98172 | 14.50539 | 4012 ft | 181 kts | 304° |
| 2026-05-07 15:59 | 49.98932 | 14.48981 | 4011 ft | 181 kts | 304° |
| 2026-05-07 16:00 | 49.99662 | 14.47488 | 4055 ft | 168 kts | 303° |
| 2026-05-07 16:00 | 50.00356 | 14.46064 | 3998 ft | 163 kts | 303° |
| 2026-05-07 16:00 | 50.01037 | 14.44664 | 3857 ft | 161 kts | 304° |
| 2026-05-07 16:00 | 50.01707 | 14.43289 | 3662 ft | 160 kts | 303° |
| 2026-05-07 16:01 | 50.02379 | 14.41908 | 3463 ft | 160 kts | 303° |
| 2026-05-07 16:01 | 50.03046 | 14.40537 | 3249 ft | 158 kts | 304° |
| 2026-05-07 16:01 | 50.03697 | 14.39197 | 3039 ft | 154 kts | 303° |
| 2026-05-07 16:01 | 50.04344 | 14.37865 | 2838 ft | 153 kts | 303° |
| 2026-05-07 16:02 | 50.04979 | 14.36558 | 2639 ft | 153 kts | 303° |
| 2026-05-07 16:02 | 50.05617 | 14.35244 | 2434 ft | 150 kts | 304° |
| 2026-05-07 16:02 | 50.06241 | 14.33960 | 2233 ft | 146 kts | 304° |
| 2026-05-07 16:02 | 50.06832 | 14.32742 | 2038 ft | 134 kts | 304° |
| 2026-05-07 16:03 | 50.07380 | 14.31613 | 1850 ft | 127 kts | 303° |
| 2026-05-07 16:03 | 50.07910 | 14.30518 | 1675 ft | 126 kts | 302° |
| 2026-05-07 16:03 | 50.08430 | 14.29442 | 1451 ft | 124 kts | 302° |
| 2026-05-07 16:03 | 50.08950 | 14.28382 | 1271 ft | 122 kts | 302° |
| 2026-05-07 16:04 | 50.09438 | 14.27336 | 1175 ft | 110 kts | 304° |
| 2026-05-07 16:04 | 50.09821 | 14.26551 | 1172 ft | 76 kts | 306° |
| 2026-05-07 16:04 | 50.10096 | 14.25985 | 1176 ft | 52 kts | 307° |
| 2026-05-07 16:04 | 50.10285 | 14.25702 | 1176 ft | 19 kts | 336° |
| 2026-05-07 16:05 | 50.10373 | 14.25663 | 1171 ft | 9 kts | 4° |
| 2026-05-07 16:05 | 50.10433 | 14.25669 | 1176 ft | 9 kts | 3° |
| 2026-05-07 16:05 | 50.10483 | 14.25711 | 1174 ft | 10 kts | 72° |
| 2026-05-07 16:05 | 50.10497 | 14.25825 | 1176 ft | 13 kts | 79° |
| 2026-05-07 16:06 | 50.10518 | 14.25988 | 1172 ft | 17 kts | 79° |
| 2026-05-07 16:06 | 50.10540 | 14.26179 | 1176 ft | 19 kts | 85° |
| 2026-05-07 16:06 | 50.10499 | 14.26319 | 1153 ft | 8 kts | 124° |
| 2026-05-07 16:06 | 50.10466 | 14.26395 | 1175 ft | 9 kts | 123° |
| 2026-05-07 16:07 | 50.10451 | 14.26436 | 1173 ft | 3 kts | 108° |
| 2026-05-07 16:07 | 50.10470 | 14.26459 | 1176 ft | 4 kts | 30° |
| 2026-05-07 16:07 | 50.10484 | 14.26472 | 1174 ft | 0 kts | 31° |
| 2026-05-07 16:07 | 50.10489 | 14.26476 | 1175 ft | 0 kts | 31° |